createdAt,value
2023-01-20T00:00:47.321Z,92699.91
2023-01-20T00:05:52.438Z,92693.53
2023-01-20T00:10:56.125Z,92704.16
2023-01-20T00:15:59.445Z,92715.00
2023-01-20T00:21:08.109Z,92720.16
2023-01-20T00:26:17.338Z,92714.31
2023-01-20T00:31:26.010Z,92731.16
2023-01-20T00:36:31.888Z,92731.59
2023-01-20T00:41:35.739Z,92726.81
2023-01-20T00:46:39.268Z,92727.31
2023-01-20T00:51:42.351Z,92737.91
2023-01-20T00:56:45.918Z,92734.16
2023-01-20T01:01:49.896Z,92756.94
2023-01-20T01:06:53.453Z,92764.19
2023-01-20T01:11:56.823Z,92762.63
2023-01-20T01:17:00.519Z,92765.38
2023-01-20T01:22:03.600Z,92768.59
2023-01-20T01:27:07.541Z,92767.31
2023-01-20T01:32:10.823Z,92759.50
2023-01-20T01:37:13.853Z,92768.59
2023-01-20T01:42:20.645Z,92770.09
2023-01-20T01:47:24.495Z,92775.53
2023-01-20T01:52:28.444Z,92766.41
2023-01-20T01:57:33.154Z,92763.66
2023-01-20T02:02:36.700Z,92764.91
2023-01-20T02:07:40.978Z,92758.94
2023-01-20T02:12:49.706Z,92744.75
2023-01-20T02:18:41.697Z,92733.91
2023-01-20T02:24:18.825Z,92727.22
2023-01-20T02:29:21.785Z,92715.97
2023-01-20T02:34:32.607Z,92707.78
2023-01-20T02:39:47.642Z,92703.22
2023-01-20T02:45:20.817Z,92674.34
2023-01-20T02:50:32.907Z,92674.56
2023-01-20T02:55:44.946Z,92678.81
2023-01-20T03:00:55.014Z,92673.69
2023-01-20T03:06:03.059Z,92675.16
2023-01-20T03:11:09.472Z,92671.75
2023-01-20T03:16:19.845Z,92687.13
2023-01-20T03:21:23.773Z,92677.13
2023-01-20T03:26:26.919Z,92671.19
2023-01-20T03:31:36.456Z,92678.16
2023-01-20T03:36:42.315Z,92654.31
2023-01-20T03:42:09.158Z,92665.59
2023-01-20T03:47:20.979Z,92666.13
2023-01-20T03:52:47.017Z,92646.97
2023-01-20T03:58:04.193Z,92652.16
2023-01-20T04:03:13.606Z,92643.56
2023-01-20T04:08:18.502Z,92663.88
2023-01-20T04:13:21.969Z,92657.22
2023-01-20T04:18:25.310Z,92658.06
2023-01-20T04:23:41.101Z,92664.31
2023-01-20T04:28:44.116Z,92660.72
2023-01-20T04:33:47.748Z,92644.59
2023-01-20T04:38:50.869Z,92656.09
2023-01-20T04:43:54.454Z,92700.19
2023-01-20T04:48:57.507Z,92730.59
2023-01-20T04:54:16.391Z,92739.44
2023-01-20T04:59:20.613Z,92763.03
2023-01-20T05:04:23.752Z,92737.38
2023-01-20T05:09:26.878Z,92746.53
2023-01-20T05:14:29.932Z,92743.88
2023-01-20T05:19:33.495Z,92763.22
2023-01-20T05:24:37.595Z,92787.34
2023-01-20T05:29:40.692Z,92796.66
2023-01-20T05:34:43.984Z,92799.22
2023-01-20T05:39:47.718Z,92783.50
2023-01-20T05:44:50.780Z,92789.91
2023-01-20T05:49:53.878Z,92787.50
2023-01-20T05:54:56.954Z,92788.25
2023-01-20T06:00:00.442Z,92792.72
2023-01-20T06:05:04.357Z,92786.69
2023-01-20T06:10:09.008Z,92782.00
2023-01-20T06:15:12.377Z,92775.38
2023-01-20T06:20:16.206Z,92776.88
2023-01-20T06:25:19.767Z,92791.75
2023-01-20T06:30:22.878Z,92784.88
2023-01-20T06:35:26.033Z,92811.75
2023-01-20T06:40:29.188Z,92823.66
2023-01-20T06:45:32.214Z,92835.50
2023-01-20T06:50:35.273Z,92820.94
2023-01-20T06:55:38.393Z,92829.53
2023-01-20T07:00:42.329Z,92846.19
2023-01-20T07:06:01.468Z,92830.47
2023-01-20T07:11:05.175Z,92828.97
2023-01-20T07:16:11.021Z,92820.47
2023-01-20T07:21:15.749Z,92825.84
2023-01-20T07:26:21.112Z,92810.53
2023-01-20T07:31:26.938Z,92796.75
2023-01-20T07:36:30.106Z,92792.03
2023-01-20T07:41:34.339Z,92806.72
2023-01-20T07:46:38.358Z,92807.63
2023-01-20T07:51:43.591Z,92829.41
2023-01-20T07:56:47.344Z,92840.06
2023-01-20T08:01:50.754Z,92835.50
2023-01-20T08:06:54.139Z,92835.38
2023-01-20T08:11:58.013Z,92826.78
2023-01-20T08:17:01.909Z,92823.94
2023-01-20T08:22:05.480Z,92815.06
2023-01-20T08:27:08.660Z,92823.69
2023-01-20T08:32:12.283Z,92812.19
2023-01-20T08:37:15.829Z,92816.94
2023-01-20T08:42:19.717Z,92794.84
2023-01-20T08:47:24.168Z,92798.81
2023-01-20T08:52:28.916Z,92801.25
2023-01-20T08:57:33.320Z,92779.25
2023-01-20T09:02:37.968Z,92773.28
2023-01-20T09:07:41.745Z,92770.09
2023-01-20T09:12:46.061Z,92766.69
2023-01-20T09:17:49.733Z,92767.59
2023-01-20T09:22:53.335Z,92757.91
2023-01-20T09:28:00.368Z,92766.47
2023-01-20T09:33:04.042Z,92762.41
2023-01-20T09:38:26.315Z,92732.63
2023-01-20T09:43:57.295Z,92743.59
2023-01-20T09:49:50.934Z,92751.25
2023-01-20T09:55:04.005Z,92755.56
2023-01-20T10:00:17.651Z,92752.66
2023-01-20T10:05:26.257Z,92740.56
2023-01-20T10:10:41.346Z,92722.19
2023-01-20T10:15:50.520Z,92726.78
2023-01-20T10:21:22.492Z,92721.75
2023-01-20T10:26:53.915Z,92739.03
2023-01-20T10:32:01.843Z,92743.22
2023-01-20T10:37:11.598Z,92729.28
2023-01-20T10:42:18.051Z,92728.91
2023-01-20T10:47:39.441Z,92736.19
2023-01-20T10:52:43.204Z,92714.63
2023-01-20T10:57:56.153Z,92722.00
2023-01-20T11:03:02.370Z,92702.06
2023-01-20T11:08:17.032Z,92702.69
2023-01-20T11:13:20.294Z,92697.91
2023-01-20T11:18:28.263Z,92674.63
2023-01-20T11:23:56.081Z,92671.78
2023-01-20T11:29:00.637Z,92654.03
2023-01-20T11:34:31.600Z,92641.38
2023-01-20T11:39:51.822Z,92608.75
2023-01-20T11:45:20.398Z,92594.72
2023-01-20T11:50:47.706Z,92590.44
2023-01-20T11:55:53.954Z,92589.69
2023-01-20T12:01:30.456Z,92580.72
2023-01-20T12:07:00.952Z,92573.34
2023-01-20T12:12:07.564Z,92558.97
2023-01-20T12:17:26.116Z,92546.78
2023-01-20T12:22:53.957Z,92535.97
2023-01-20T12:28:05.625Z,92532.38
2023-01-20T12:33:21.012Z,92496.88
2023-01-20T12:38:25.359Z,92485.78
2023-01-20T12:43:51.285Z,92487.56
2023-01-20T12:49:22.007Z,92478.31
2023-01-20T12:54:50.805Z,92467.06
2023-01-20T13:00:00.059Z,92463.22
2023-01-20T13:05:13.301Z,92468.66
2023-01-20T13:10:32.408Z,92467.50
2023-01-20T13:15:59.670Z,92456.97
2023-01-20T13:21:12.965Z,92463.16
2023-01-20T13:26:17.625Z,92476.47
2023-01-20T13:31:44.702Z,92491.25
2023-01-20T13:37:03.885Z,92497.41
2023-01-20T13:42:38.061Z,92489.69
2023-01-20T13:48:06.598Z,92488.56
2023-01-20T13:53:21.613Z,92462.53
2023-01-20T13:58:33.843Z,92464.44
2023-01-20T14:03:40.271Z,92459.34
2023-01-20T14:08:47.788Z,92451.50
2023-01-20T14:13:55.307Z,92420.84
2023-01-20T14:19:01.557Z,92428.66
2023-01-20T14:24:05.203Z,92423.44
2023-01-20T14:29:20.410Z,92385.72
2023-01-20T14:34:32.451Z,92383.38
2023-01-20T14:39:35.856Z,92376.72
2023-01-20T14:44:39.440Z,92379.81
2023-01-20T14:49:44.002Z,92383.59
2023-01-20T14:54:49.931Z,92371.50
2023-01-20T15:00:18.913Z,92360.97
2023-01-20T15:05:34.933Z,92333.16
2023-01-20T15:10:40.833Z,92333.88
2023-01-20T15:15:45.140Z,92331.94
2023-01-20T15:21:15.689Z,92322.28
2023-01-20T15:26:28.932Z,92316.13
2023-01-20T15:31:32.626Z,92315.00
2023-01-20T15:36:42.612Z,92317.69
2023-01-20T15:41:47.853Z,92309.97
2023-01-20T15:46:52.383Z,92309.97
2023-01-20T15:51:57.135Z,92297.63
2023-01-20T15:57:00.495Z,92294.56
2023-01-20T16:02:04.360Z,92277.50
2023-01-20T16:07:19.302Z,92271.69
2023-01-20T16:12:22.371Z,92242.66
2023-01-20T16:17:30.891Z,92229.09
2023-01-20T16:22:34.536Z,92208.13
2023-01-20T16:27:37.897Z,92182.94
2023-01-20T16:32:41.515Z,92175.59
2023-01-20T16:37:46.887Z,92170.16
2023-01-20T16:42:51.194Z,92144.97
2023-01-20T16:47:54.693Z,92119.38
2023-01-20T16:52:58.356Z,92125.59
2023-01-20T16:58:01.603Z,92098.44
2023-01-20T17:03:05.389Z,92140.66
2023-01-20T17:08:10.664Z,92115.13
2023-01-20T17:13:15.220Z,92155.44
2023-01-20T17:18:18.247Z,92124.81
2023-01-20T17:23:22.150Z,92153.09
2023-01-20T17:28:26.440Z,92153.88
2023-01-20T17:33:30.450Z,92164.72
2023-01-20T17:38:36.248Z,92182.53
2023-01-20T17:43:42.168Z,92178.66
2023-01-20T17:48:46.552Z,92188.75
2023-01-20T17:53:51.149Z,92155.81
2023-01-20T17:58:54.987Z,92184.13
2023-01-20T18:04:00.441Z,92183.72
2023-01-20T18:09:06.111Z,92170.16
2023-01-20T18:14:12.004Z,92172.47
2023-01-20T18:19:17.042Z,92151.94
2023-01-20T18:24:20.962Z,92120.56
2023-01-20T18:29:24.724Z,92089.97
2023-01-20T18:34:30.443Z,92083.34
2023-01-20T18:39:36.952Z,92026.47
2023-01-20T18:44:41.414Z,92065.91
2023-01-20T18:49:44.566Z,92083.75
2023-01-20T18:54:48.079Z,92087.97
2023-01-20T18:59:51.106Z,92113.13
2023-01-20T19:04:54.573Z,92130.16
2023-01-20T19:09:57.724Z,92145.59
2023-01-20T19:15:01.840Z,92140.97
2023-01-20T19:20:05.917Z,92095.66
2023-01-20T19:25:09.469Z,92121.53
2023-01-20T19:30:13.431Z,92110.41
2023-01-20T19:35:17.116Z,92131.25
2023-01-20T19:40:20.218Z,92114.28
2023-01-20T19:45:26.953Z,92151.00
2023-01-20T19:50:33.075Z,92142.88
2023-01-20T19:55:36.523Z,92162.97
2023-01-20T20:00:40.626Z,92156.06
2023-01-20T20:05:44.285Z,92166.94
2023-01-20T20:10:48.490Z,92192.53
2023-01-20T20:16:03.437Z,92204.94
2023-01-20T20:21:08.564Z,92200.63
2023-01-20T20:26:13.373Z,92198.72
2023-01-20T20:31:17.058Z,92215.38
2023-01-20T20:36:20.899Z,92215.75
2023-01-20T20:41:26.779Z,92219.94
2023-01-20T20:46:30.664Z,92203.22
2023-01-20T20:51:35.619Z,92224.78
2023-01-20T20:56:39.000Z,92244.47
2023-01-20T21:01:42.146Z,92242.16
2023-01-20T21:06:45.632Z,92252.22
2023-01-20T21:11:49.168Z,92276.06
2023-01-20T21:16:52.325Z,92299.69
2023-01-20T21:21:56.039Z,92309.28
2023-01-20T21:27:00.940Z,92306.16
2023-01-20T21:32:04.175Z,92328.44
2023-01-20T21:37:08.925Z,92324.63
2023-01-20T21:42:11.972Z,92321.38
2023-01-20T21:47:15.847Z,92318.28
2023-01-20T21:52:42.999Z,92320.19
2023-01-20T21:57:48.415Z,92328.88
2023-01-20T22:02:53.665Z,92311.97
2023-01-20T22:07:57.086Z,92330.75
2023-01-20T22:13:00.433Z,92337.28
2023-01-20T22:18:04.598Z,92317.22
2023-01-20T22:23:07.806Z,92327.34
2023-01-20T22:28:11.721Z,92335.19
2023-01-20T22:33:15.561Z,92335.19
2023-01-20T22:38:19.507Z,92334.84
2023-01-20T22:43:22.786Z,92333.91
2023-01-20T22:48:26.076Z,92350.22
2023-01-20T22:53:29.734Z,92351.31
2023-01-20T22:58:33.418Z,92347.13
2023-01-20T23:03:37.006Z,92351.78
2023-01-20T23:08:41.294Z,92319.34
2023-01-20T23:13:45.870Z,92330.22
2023-01-20T23:18:50.773Z,92334.00
2023-01-20T23:23:57.067Z,92335.34
2023-01-20T23:29:00.419Z,92331.81
2023-01-20T23:34:04.408Z,92329.16
2023-01-20T23:39:07.595Z,92326.34
2023-01-20T23:44:11.408Z,92321.91
2023-01-20T23:49:14.942Z,92338.69
2023-01-20T23:54:18.151Z,92339.09
2023-01-20T23:59:21.802Z,92341.16
